sensor_id;sensor_type;location;lat;lon;timestamp;P1;durP1;ratioP1;P2;durP2;ratioP2
35646;SDS011;28680;45.642;13.756;2023-06-10T00:02:19;7.80;;;5.43;;
35646;SDS011;28680;45.642;13.756;2023-06-10T00:04:45;8.07;;;5.80;;
35646;SDS011;28680;45.642;13.756;2023-06-10T00:07:11;8.32;;;6.20;;
35646;SDS011;28680;45.642;13.756;2023-06-10T00:09:37;7.47;;;5.95;;
35646;SDS011;28680;45.642;13.756;2023-06-10T00:12:04;8.38;;;5.80;;
35646;SDS011;28680;45.642;13.756;2023-06-10T00:14:37;7.00;;;5.68;;
35646;SDS011;28680;45.642;13.756;2023-06-10T00:17:05;7.25;;;5.82;;
35646;SDS011;28680;45.642;13.756;2023-06-10T00:19:34;9.15;;;6.28;;
35646;SDS011;28680;45.642;13.756;2023-06-10T00:22:00;9.77;;;6.13;;
35646;SDS011;28680;45.642;13.756;2023-06-10T00:24:26;8.68;;;6.32;;
35646;SDS011;28680;45.642;13.756;2023-06-10T00:26:51;9.18;;;6.07;;
35646;SDS011;28680;45.642;13.756;2023-06-10T00:29:17;7.15;;;5.50;;
35646;SDS011;28680;45.642;13.756;2023-06-10T00:31:44;7.88;;;5.38;;
35646;SDS011;28680;45.642;13.756;2023-06-10T00:34:11;6.57;;;5.13;;
35646;SDS011;28680;45.642;13.756;2023-06-10T00:36:37;6.38;;;5.20;;
35646;SDS011;28680;45.642;13.756;2023-06-10T00:39:03;6.63;;;5.32;;
35646;SDS011;28680;45.642;13.756;2023-06-10T00:41:29;7.55;;;5.20;;
35646;SDS011;28680;45.642;13.756;2023-06-10T00:43:56;6.45;;;4.90;;
35646;SDS011;28680;45.642;13.756;2023-06-10T00:46:22;6.18;;;5.15;;
35646;SDS011;28680;45.642;13.756;2023-06-10T00:48:50;9.38;;;4.75;;
35646;SDS011;28680;45.642;13.756;2023-06-10T00:51:17;6.38;;;5.32;;
35646;SDS011;28680;45.642;13.756;2023-06-10T00:53:44;8.18;;;5.43;;
35646;SDS011;28680;45.642;13.756;2023-06-10T00:56:10;6.60;;;5.50;;
35646;SDS011;28680;45.642;13.756;2023-06-10T00:58:38;10.90;;;5.63;;
35646;SDS011;28680;45.642;13.756;2023-06-10T01:01:04;7.47;;;4.97;;
35646;SDS011;28680;45.642;13.756;2023-06-10T01:03:30;7.15;;;5.57;;
35646;SDS011;28680;45.642;13.756;2023-06-10T01:06:02;8.85;;;5.65;;
35646;SDS011;28680;45.642;13.756;2023-06-10T01:11:28;7.60;;;5.63;;
35646;SDS011;28680;45.642;13.756;2023-06-10T01:14:01;8.88;;;6.07;;
35646;SDS011;28680;45.642;13.756;2023-06-10T01:16:30;6.85;;;6.15;;
35646;SDS011;28680;45.642;13.756;2023-06-10T01:18:56;7.22;;;5.50;;
35646;SDS011;28680;45.642;13.756;2023-06-10T01:21:23;8.23;;;5.45;;
35646;SDS011;28680;45.642;13.756;2023-06-10T01:23:49;8.40;;;6.50;;
35646;SDS011;28680;45.642;13.756;2023-06-10T01:26:17;9.32;;;6.55;;
35646;SDS011;28680;45.642;13.756;2023-06-10T01:34:16;8.45;;;7.45;;
35646;SDS011;28680;45.642;13.756;2023-06-10T01:36:45;9.05;;;7.10;;
35646;SDS011;28680;45.642;13.756;2023-06-10T01:39:17;8.93;;;7.38;;
35646;SDS011;28680;45.642;13.756;2023-06-10T01:41:48;8.38;;;6.75;;
35646;SDS011;28680;45.642;13.756;2023-06-10T01:44:17;9.18;;;6.57;;
35646;SDS011;28680;45.642;13.756;2023-06-10T01:46:45;8.07;;;6.10;;
35646;SDS011;28680;45.642;13.756;2023-06-10T01:49:11;7.47;;;5.82;;
35646;SDS011;28680;45.642;13.756;2023-06-10T01:51:38;8.85;;;6.50;;
35646;SDS011;28680;45.642;13.756;2023-06-10T01:54:04;9.38;;;6.75;;
35646;SDS011;28680;45.642;13.756;2023-06-10T01:56:31;8.10;;;6.10;;
35646;SDS011;28680;45.642;13.756;2023-06-10T01:58:57;6.07;;;5.40;;
35646;SDS011;28680;45.642;13.756;2023-06-10T02:01:28;9.02;;;5.60;;
35646;SDS011;28680;45.642;13.756;2023-06-10T02:03:54;6.03;;;5.28;;
35646;SDS011;28680;45.642;13.756;2023-06-10T02:06:20;9.02;;;5.50;;
35646;SDS011;28680;45.642;13.756;2023-06-10T02:08:46;6.68;;;5.00;;
35646;SDS011;28680;45.642;13.756;2023-06-10T02:11:12;6.97;;;5.43;;
35646;SDS011;28680;45.642;13.756;2023-06-10T02:13:38;5.93;;;5.32;;
35646;SDS011;28680;45.642;13.756;2023-06-10T02:16:04;8.05;;;5.15;;
35646;SDS011;28680;45.642;13.756;2023-06-10T02:18:30;10.50;;;5.88;;
35646;SDS011;28680;45.642;13.756;2023-06-10T02:20:58;6.53;;;5.07;;
35646;SDS011;28680;45.642;13.756;2023-06-10T02:23:24;8.55;;;5.40;;
35646;SDS011;28680;45.642;13.756;2023-06-10T02:25:50;6.28;;;5.13;;
35646;SDS011;28680;45.642;13.756;2023-06-10T02:28:16;6.90;;;5.45;;
35646;SDS011;28680;45.642;13.756;2023-06-10T02:30:42;8.88;;;5.38;;
35646;SDS011;28680;45.642;13.756;2023-06-10T02:33:08;7.43;;;5.13;;
35646;SDS011;28680;45.642;13.756;2023-06-10T02:35:39;6.50;;;5.15;;
35646;SDS011;28680;45.642;13.756;2023-06-10T02:38:05;6.50;;;5.22;;
35646;SDS011;28680;45.642;13.756;2023-06-10T02:40:31;7.55;;;5.20;;
35646;SDS011;28680;45.642;13.756;2023-06-10T02:42:57;11.38;;;5.57;;
35646;SDS011;28680;45.642;13.756;2023-06-10T02:45:24;7.07;;;5.28;;
35646;SDS011;28680;45.642;13.756;2023-06-10T02:47:50;6.45;;;5.35;;
35646;SDS011;28680;45.642;13.756;2023-06-10T02:50:16;6.70;;;5.00;;
35646;SDS011;28680;45.642;13.756;2023-06-10T02:52:42;6.50;;;4.93;;
35646;SDS011;28680;45.642;13.756;2023-06-10T02:55:08;7.47;;;5.47;;
35646;SDS011;28680;45.642;13.756;2023-06-10T02:57:34;6.72;;;5.25;;
35646;SDS011;28680;45.642;13.756;2023-06-10T03:00:00;7.07;;;5.65;;
35646;SDS011;28680;45.642;13.756;2023-06-10T03:02:27;8.18;;;5.68;;
35646;SDS011;28680;45.642;13.756;2023-06-10T03:04:57;17.40;;;5.80;;
35646;SDS011;28680;45.642;13.756;2023-06-10T03:07:23;7.88;;;5.15;;
35646;SDS011;28680;45.642;13.756;2023-06-10T03:09:50;6.38;;;4.85;;
35646;SDS011;28680;45.642;13.756;2023-06-10T03:12:15;6.53;;;4.80;;
35646;SDS011;28680;45.642;13.756;2023-06-10T03:14:41;16.10;;;5.38;;
35646;SDS011;28680;45.642;13.756;2023-06-10T03:17:07;7.97;;;5.53;;
35646;SDS011;28680;45.642;13.756;2023-06-10T03:19:36;7.80;;;5.00;;
35646;SDS011;28680;45.642;13.756;2023-06-10T03:22:16;8.00;;;5.32;;
35646;SDS011;28680;45.642;13.756;2023-06-10T03:24:42;8.25;;;5.10;;
35646;SDS011;28680;45.642;13.756;2023-06-10T03:27:11;5.53;;;4.80;;
35646;SDS011;28680;45.642;13.756;2023-06-10T03:29:38;8.13;;;5.10;;
35646;SDS011;28680;45.642;13.756;2023-06-10T03:32:04;9.43;;;5.72;;
35646;SDS011;28680;45.642;13.756;2023-06-10T03:34:31;8.35;;;5.30;;
35646;SDS011;28680;45.642;13.756;2023-06-10T03:36:57;6.30;;;4.93;;
35646;SDS011;28680;45.642;13.756;2023-06-10T03:39:23;8.35;;;5.45;;
35646;SDS011;28680;45.642;13.756;2023-06-10T03:41:50;12.50;;;5.25;;
35646;SDS011;28680;45.642;13.756;2023-06-10T03:44:16;7.82;;;4.63;;
35646;SDS011;28680;45.642;13.756;2023-06-10T03:46:42;9.50;;;5.15;;
35646;SDS011;28680;45.642;13.756;2023-06-10T03:49:08;5.32;;;4.80;;
35646;SDS011;28680;45.642;13.756;2023-06-10T03:51:34;7.93;;;5.15;;
35646;SDS011;28680;45.642;13.756;2023-06-10T03:54:01;8.50;;;5.32;;
35646;SDS011;28680;45.642;13.756;2023-06-10T03:56:27;8.52;;;5.35;;
35646;SDS011;28680;45.642;13.756;2023-06-10T03:58:54;8.18;;;5.35;;
35646;SDS011;28680;45.642;13.756;2023-06-10T04:01:20;6.43;;;5.10;;
35646;SDS011;28680;45.642;13.756;2023-06-10T04:03:48;6.38;;;5.10;;
35646;SDS011;28680;45.642;13.756;2023-06-10T04:06:16;6.93;;;5.28;;
35646;SDS011;28680;45.642;13.756;2023-06-10T04:08:42;7.22;;;4.97;;
35646;SDS011;28680;45.642;13.756;2023-06-10T04:11:08;6.88;;;4.97;;
35646;SDS011;28680;45.642;13.756;2023-06-10T04:13:34;4.97;;;4.40;;
35646;SDS011;28680;45.642;13.756;2023-06-10T04:16:01;7.57;;;5.03;;
35646;SDS011;28680;45.642;13.756;2023-06-10T04:18:27;6.25;;;5.13;;
35646;SDS011;28680;45.642;13.756;2023-06-10T04:20:53;6.65;;;5.15;;
35646;SDS011;28680;45.642;13.756;2023-06-10T04:23:20;7.20;;;5.20;;
35646;SDS011;28680;45.642;13.756;2023-06-10T04:25:46;7.30;;;4.88;;
35646;SDS011;28680;45.642;13.756;2023-06-10T04:28:12;6.07;;;4.72;;
35646;SDS011;28680;45.642;13.756;2023-06-10T04:30:39;5.65;;;5.00;;
35646;SDS011;28680;45.642;13.756;2023-06-10T04:33:06;7.18;;;5.22;;
35646;SDS011;28680;45.642;13.756;2023-06-10T04:35:34;8.77;;;5.55;;
35646;SDS011;28680;45.642;13.756;2023-06-10T04:37:59;6.60;;;5.07;;
35646;SDS011;28680;45.642;13.756;2023-06-10T04:40:27;6.93;;;5.20;;
35646;SDS011;28680;45.642;13.756;2023-06-10T04:42:53;7.43;;;5.03;;
35646;SDS011;28680;45.642;13.756;2023-06-10T04:45:19;7.25;;;5.22;;
35646;SDS011;28680;45.642;13.756;2023-06-10T04:47:45;8.45;;;5.28;;
35646;SDS011;28680;45.642;13.756;2023-06-10T04:50:11;6.70;;;5.22;;
35646;SDS011;28680;45.642;13.756;2023-06-10T04:52:37;7.72;;;5.57;;
35646;SDS011;28680;45.642;13.756;2023-06-10T04:55:03;6.82;;;5.50;;
35646;SDS011;28680;45.642;13.756;2023-06-10T04:57:29;9.40;;;5.63;;
35646;SDS011;28680;45.642;13.756;2023-06-10T04:59:55;6.72;;;5.45;;
35646;SDS011;28680;45.642;13.756;2023-06-10T05:02:20;12.60;;;5.68;;
35646;SDS011;28680;45.642;13.756;2023-06-10T05:04:46;10.55;;;5.22;;
35646;SDS011;28680;45.642;13.756;2023-06-10T05:07:12;8.40;;;5.63;;
35646;SDS011;28680;45.642;13.756;2023-06-10T05:09:38;9.13;;;5.63;;
35646;SDS011;28680;45.642;13.756;2023-06-10T05:12:04;7.72;;;5.47;;
35646;SDS011;28680;45.642;13.756;2023-06-10T05:14:31;5.93;;;4.97;;
35646;SDS011;28680;45.642;13.756;2023-06-10T05:16:57;6.97;;;5.28;;
35646;SDS011;28680;45.642;13.756;2023-06-10T05:19:23;8.23;;;5.18;;
35646;SDS011;28680;45.642;13.756;2023-06-10T05:21:49;6.40;;;5.22;;
35646;SDS011;28680;45.642;13.756;2023-06-10T05:24:15;9.63;;;5.20;;
35646;SDS011;28680;45.642;13.756;2023-06-10T05:26:40;7.15;;;5.78;;
35646;SDS011;28680;45.642;13.756;2023-06-10T05:29:07;6.70;;;5.45;;
35646;SDS011;28680;45.642;13.756;2023-06-10T05:31:34;8.95;;;5.72;;
35646;SDS011;28680;45.642;13.756;2023-06-10T05:34:00;7.22;;;5.53;;
35646;SDS011;28680;45.642;13.756;2023-06-10T05:36:25;9.02;;;6.07;;
35646;SDS011;28680;45.642;13.756;2023-06-10T05:38:52;7.60;;;5.65;;
35646;SDS011;28680;45.642;13.756;2023-06-10T05:41:18;7.60;;;5.55;;
35646;SDS011;28680;45.642;13.756;2023-06-10T05:43:45;8.48;;;5.88;;
35646;SDS011;28680;45.642;13.756;2023-06-10T05:46:11;7.10;;;5.32;;
35646;SDS011;28680;45.642;13.756;2023-06-10T05:48:37;7.63;;;5.25;;
35646;SDS011;28680;45.642;13.756;2023-06-10T05:51:03;12.55;;;6.25;;
35646;SDS011;28680;45.642;13.756;2023-06-10T05:53:29;6.40;;;5.00;;
35646;SDS011;28680;45.642;13.756;2023-06-10T05:55:55;5.82;;;4.30;;
35646;SDS011;28680;45.642;13.756;2023-06-10T05:58:22;7.80;;;5.30;;
35646;SDS011;28680;45.642;13.756;2023-06-10T06:00:49;6.70;;;5.30;;
35646;SDS011;28680;45.642;13.756;2023-06-10T06:03:15;6.10;;;4.72;;
35646;SDS011;28680;45.642;13.756;2023-06-10T06:05:42;6.72;;;4.53;;
35646;SDS011;28680;45.642;13.756;2023-06-10T06:08:08;7.65;;;5.18;;
35646;SDS011;28680;45.642;13.756;2023-06-10T06:10:34;7.43;;;5.38;;
35646;SDS011;28680;45.642;13.756;2023-06-10T06:13:01;6.57;;;5.43;;
35646;SDS011;28680;45.642;13.756;2023-06-10T06:15:27;7.65;;;5.70;;
35646;SDS011;28680;45.642;13.756;2023-06-10T06:17:53;7.15;;;5.10;;
35646;SDS011;28680;45.642;13.756;2023-06-10T06:20:20;7.35;;;6.07;;
35646;SDS011;28680;45.642;13.756;2023-06-10T06:22:47;7.82;;;6.03;;
35646;SDS011;28680;45.642;13.756;2023-06-10T06:25:13;6.25;;;5.40;;
35646;SDS011;28680;45.642;13.756;2023-06-10T06:27:39;6.70;;;5.15;;
35646;SDS011;28680;45.642;13.756;2023-06-10T06:30:05;9.20;;;6.32;;
35646;SDS011;28680;45.642;13.756;2023-06-10T06:32:32;8.20;;;5.63;;
35646;SDS011;28680;45.642;13.756;2023-06-10T06:34:58;12.23;;;5.90;;
35646;SDS011;28680;45.642;13.756;2023-06-10T06:37:24;7.30;;;5.75;;
35646;SDS011;28680;45.642;13.756;2023-06-10T06:39:51;5.97;;;5.38;;
35646;SDS011;28680;45.642;13.756;2023-06-10T06:42:18;6.05;;;5.18;;
35646;SDS011;28680;45.642;13.756;2023-06-10T06:44:45;7.60;;;5.18;;
35646;SDS011;28680;45.642;13.756;2023-06-10T06:47:12;9.52;;;5.90;;
35646;SDS011;28680;45.642;13.756;2023-06-10T06:49:38;6.03;;;5.10;;
35646;SDS011;28680;45.642;13.756;2023-06-10T06:52:04;7.38;;;5.88;;
35646;SDS011;28680;45.642;13.756;2023-06-10T06:54:31;7.45;;;5.40;;
35646;SDS011;28680;45.642;13.756;2023-06-10T06:56:57;7.55;;;5.47;;
35646;SDS011;28680;45.642;13.756;2023-06-10T06:59:23;8.68;;;5.47;;
35646;SDS011;28680;45.642;13.756;2023-06-10T07:01:50;7.40;;;5.82;;
35646;SDS011;28680;45.642;13.756;2023-06-10T07:04:19;8.10;;;5.05;;
35646;SDS011;28680;45.642;13.756;2023-06-10T07:06:46;6.90;;;5.22;;
35646;SDS011;28680;45.642;13.756;2023-06-10T07:09:13;6.25;;;4.90;;
35646;SDS011;28680;45.642;13.756;2023-06-10T07:11:39;9.35;;;5.57;;
35646;SDS011;28680;45.642;13.756;2023-06-10T07:14:05;8.10;;;5.65;;
35646;SDS011;28680;45.642;13.756;2023-06-10T07:16:31;7.03;;;5.30;;
35646;SDS011;28680;45.642;13.756;2023-06-10T07:18:57;6.90;;;4.93;;
35646;SDS011;28680;45.642;13.756;2023-06-10T07:21:23;6.50;;;4.63;;
35646;SDS011;28680;45.642;13.756;2023-06-10T07:23:49;6.40;;;4.90;;
35646;SDS011;28680;45.642;13.756;2023-06-10T07:26:18;6.95;;;6.18;;
35646;SDS011;28680;45.642;13.756;2023-06-10T07:28:44;6.25;;;5.65;;
35646;SDS011;28680;45.642;13.756;2023-06-10T07:31:10;5.95;;;5.25;;
35646;SDS011;28680;45.642;13.756;2023-06-10T07:33:37;7.55;;;5.38;;
35646;SDS011;28680;45.642;13.756;2023-06-10T07:36:04;8.02;;;5.57;;
35646;SDS011;28680;45.642;13.756;2023-06-10T07:38:33;6.30;;;5.32;;
35646;SDS011;28680;45.642;13.756;2023-06-10T07:40:59;7.63;;;5.25;;
35646;SDS011;28680;45.642;13.756;2023-06-10T07:43:25;6.78;;;5.32;;
35646;SDS011;28680;45.642;13.756;2023-06-10T07:45:51;5.50;;;4.55;;
35646;SDS011;28680;45.642;13.756;2023-06-10T07:48:17;5.93;;;5.10;;
35646;SDS011;28680;45.642;13.756;2023-06-10T07:50:43;6.20;;;5.32;;
35646;SDS011;28680;45.642;13.756;2023-06-10T07:53:09;6.25;;;5.60;;
35646;SDS011;28680;45.642;13.756;2023-06-10T07:55:35;8.65;;;4.68;;
35646;SDS011;28680;45.642;13.756;2023-06-10T07:58:01;7.13;;;5.82;;
35646;SDS011;28680;45.642;13.756;2023-06-10T08:00:27;5.60;;;5.10;;
35646;SDS011;28680;45.642;13.756;2023-06-10T08:02:53;6.40;;;5.25;;
35646;SDS011;28680;45.642;13.756;2023-06-10T08:05:19;6.03;;;4.60;;
35646;SDS011;28680;45.642;13.756;2023-06-10T08:07:45;6.20;;;5.55;;
35646;SDS011;28680;45.642;13.756;2023-06-10T08:10:11;6.32;;;4.82;;
35646;SDS011;28680;45.642;13.756;2023-06-10T08:12:37;5.63;;;5.03;;
35646;SDS011;28680;45.642;13.756;2023-06-10T08:15:03;4.10;;;3.70;;
35646;SDS011;28680;45.642;13.756;2023-06-10T08:17:30;7.18;;;5.50;;
35646;SDS011;28680;45.642;13.756;2023-06-10T08:19:56;9.55;;;6.32;;
35646;SDS011;28680;45.642;13.756;2023-06-10T08:22:25;5.78;;;4.80;;
35646;SDS011;28680;45.642;13.756;2023-06-10T08:24:54;4.57;;;4.07;;
35646;SDS011;28680;45.642;13.756;2023-06-10T08:27:21;7.38;;;6.13;;
35646;SDS011;28680;45.642;13.756;2023-06-10T08:29:47;5.38;;;3.97;;
35646;SDS011;28680;45.642;13.756;2023-06-10T08:32:12;4.60;;;4.15;;
35646;SDS011;28680;45.642;13.756;2023-06-10T08:34:38;7.65;;;5.57;;
35646;SDS011;28680;45.642;13.756;2023-06-10T08:37:04;5.03;;;4.53;;
35646;SDS011;28680;45.642;13.756;2023-06-10T08:39:31;5.30;;;4.00;;
35646;SDS011;28680;45.642;13.756;2023-06-10T08:42:04;4.93;;;4.18;;
35646;SDS011;28680;45.642;13.756;2023-06-10T08:44:45;6.68;;;5.32;;
35646;SDS011;28680;45.642;13.756;2023-06-10T08:47:15;7.28;;;6.07;;
35646;SDS011;28680;45.642;13.756;2023-06-10T08:49:45;8.00;;;6.72;;
35646;SDS011;28680;45.642;13.756;2023-06-10T08:52:16;5.80;;;4.43;;
35646;SDS011;28680;45.642;13.756;2023-06-10T08:54:59;4.68;;;3.97;;
35646;SDS011;28680;45.642;13.756;2023-06-10T08:57:35;5.35;;;3.97;;
35646;SDS011;28680;45.642;13.756;2023-06-10T09:00:02;6.03;;;4.80;;
35646;SDS011;28680;45.642;13.756;2023-06-10T09:02:29;8.13;;;5.40;;
35646;SDS011;28680;45.642;13.756;2023-06-10T09:05:00;8.85;;;6.50;;
35646;SDS011;28680;45.642;13.756;2023-06-10T09:07:27;6.38;;;4.97;;
35646;SDS011;28680;45.642;13.756;2023-06-10T09:09:56;7.07;;;5.20;;
35646;SDS011;28680;45.642;13.756;2023-06-10T09:12:24;5.25;;;4.68;;
35646;SDS011;28680;45.642;13.756;2023-06-10T09:14:50;8.60;;;6.30;;
35646;SDS011;28680;45.642;13.756;2023-06-10T09:17:16;5.03;;;4.40;;
35646;SDS011;28680;45.642;13.756;2023-06-10T09:19:42;5.13;;;4.57;;
35646;SDS011;28680;45.642;13.756;2023-06-10T09:22:10;6.05;;;5.25;;
35646;SDS011;28680;45.642;13.756;2023-06-10T09:24:36;5.30;;;4.25;;
35646;SDS011;28680;45.642;13.756;2023-06-10T09:27:04;5.70;;;5.10;;
35646;SDS011;28680;45.642;13.756;2023-06-10T09:29:52;5.97;;;4.85;;
35646;SDS011;28680;45.642;13.756;2023-06-10T09:32:23;5.47;;;4.15;;
35646;SDS011;28680;45.642;13.756;2023-06-10T09:34:49;5.25;;;4.65;;
35646;SDS011;28680;45.642;13.756;2023-06-10T09:37:22;4.57;;;3.95;;
35646;SDS011;28680;45.642;13.756;2023-06-10T09:40:05;5.72;;;4.15;;
35646;SDS011;28680;45.642;13.756;2023-06-10T09:42:34;6.13;;;5.10;;
35646;SDS011;28680;45.642;13.756;2023-06-10T09:45:04;5.95;;;4.00;;
35646;SDS011;28680;45.642;13.756;2023-06-10T09:47:32;5.43;;;3.92;;
35646;SDS011;28680;45.642;13.756;2023-06-10T09:49:58;5.43;;;4.25;;
35646;SDS011;28680;45.642;13.756;2023-06-10T09:52:26;5.03;;;4.50;;
35646;SDS011;28680;45.642;13.756;2023-06-10T09:54:58;4.30;;;3.90;;
35646;SDS011;28680;45.642;13.756;2023-06-10T09:57:26;6.30;;;4.40;;
35646;SDS011;28680;45.642;13.756;2023-06-10T10:00:09;5.82;;;3.67;;
35646;SDS011;28680;45.642;13.756;2023-06-10T10:02:46;3.75;;;3.35;;
35646;SDS011;28680;45.642;13.756;2023-06-10T10:05:19;4.10;;;3.25;;
35646;SDS011;28680;45.642;13.756;2023-06-10T10:07:47;4.15;;;3.75;;
35646;SDS011;28680;45.642;13.756;2023-06-10T10:10:14;7.28;;;3.80;;
35646;SDS011;28680;45.642;13.756;2023-06-10T10:12:41;4.30;;;3.28;;
35646;SDS011;28680;45.642;13.756;2023-06-10T10:15:11;4.90;;;3.13;;
35646;SDS011;28680;45.642;13.756;2023-06-10T10:17:41;4.22;;;3.80;;
35646;SDS011;28680;45.642;13.756;2023-06-10T10:20:26;4.22;;;3.70;;
35646;SDS011;28680;45.642;13.756;2023-06-10T10:22:56;7.97;;;3.97;;
35646;SDS011;28680;45.642;13.756;2023-06-10T10:25:25;6.75;;;3.65;;
35646;SDS011;28680;45.642;13.756;2023-06-10T10:28:10;5.30;;;4.07;;
35646;SDS011;28680;45.642;13.756;2023-06-10T10:30:49;3.72;;;3.33;;
35646;SDS011;28680;45.642;13.756;2023-06-10T10:33:20;5.22;;;4.10;;
35646;SDS011;28680;45.642;13.756;2023-06-10T10:35:56;7.00;;;4.60;;
35646;SDS011;28680;45.642;13.756;2023-06-10T10:38:23;5.50;;;4.53;;
35646;SDS011;28680;45.642;13.756;2023-06-10T10:40:50;6.90;;;4.47;;
35646;SDS011;28680;45.642;13.756;2023-06-10T10:43:17;4.65;;;3.72;;
35646;SDS011;28680;45.642;13.756;2023-06-10T10:45:45;4.97;;;3.63;;
35646;SDS011;28680;45.642;13.756;2023-06-10T10:48:22;6.30;;;4.32;;
35646;SDS011;28680;45.642;13.756;2023-06-10T10:50:56;5.72;;;4.00;;
35646;SDS011;28680;45.642;13.756;2023-06-10T10:53:25;6.93;;;4.68;;
35646;SDS011;28680;45.642;13.756;2023-06-10T10:56:06;6.22;;;4.25;;
35646;SDS011;28680;45.642;13.756;2023-06-10T10:58:43;6.18;;;4.18;;
35646;SDS011;28680;45.642;13.756;2023-06-10T11:01:39;4.28;;;3.75;;
35646;SDS011;28680;45.642;13.756;2023-06-10T11:04:11;4.20;;;3.78;;
35646;SDS011;28680;45.642;13.756;2023-06-10T11:06:37;3.72;;;3.20;;
35646;SDS011;28680;45.642;13.756;2023-06-10T11:11:53;3.78;;;3.30;;
35646;SDS011;28680;45.642;13.756;2023-06-10T11:14:29;4.65;;;3.45;;
35646;SDS011;28680;45.642;13.756;2023-06-10T11:16:57;5.55;;;3.40;;
35646;SDS011;28680;45.642;13.756;2023-06-10T11:19:37;4.68;;;3.60;;
35646;SDS011;28680;45.642;13.756;2023-06-10T11:22:06;4.68;;;3.60;;
35646;SDS011;28680;45.642;13.756;2023-06-10T11:24:33;4.20;;;3.50;;
35646;SDS011;28680;45.642;13.756;2023-06-10T11:27:15;6.78;;;3.78;;
35646;SDS011;28680;45.642;13.756;2023-06-10T11:30:00;7.07;;;3.80;;
35646;SDS011;28680;45.642;13.756;2023-06-10T11:32:51;5.15;;;3.47;;
35646;SDS011;28680;45.642;13.756;2023-06-10T11:35:18;5.40;;;3.67;;
35646;SDS011;28680;45.642;13.756;2023-06-10T11:37:46;5.20;;;4.13;;
35646;SDS011;28680;45.642;13.756;2023-06-10T11:40:13;4.47;;;3.80;;
35646;SDS011;28680;45.642;13.756;2023-06-10T11:42:40;6.22;;;4.10;;
35646;SDS011;28680;45.642;13.756;2023-06-10T11:45:07;7.32;;;4.53;;
35646;SDS011;28680;45.642;13.756;2023-06-10T11:47:33;5.53;;;4.30;;
35646;SDS011;28680;45.642;13.756;2023-06-10T11:49:59;6.18;;;4.00;;
35646;SDS011;28680;45.642;13.756;2023-06-10T11:52:28;5.70;;;4.60;;
35646;SDS011;28680;45.642;13.756;2023-06-10T11:55:03;4.93;;;4.10;;
35646;SDS011;28680;45.642;13.756;2023-06-10T11:57:30;5.13;;;4.40;;
35646;SDS011;28680;45.642;13.756;2023-06-10T12:00:04;7.28;;;5.05;;
35646;SDS011;28680;45.642;13.756;2023-06-10T12:02:33;6.03;;;5.30;;
35646;SDS011;28680;45.642;13.756;2023-06-10T12:05:12;6.25;;;4.50;;
35646;SDS011;28680;45.642;13.756;2023-06-10T12:07:39;6.55;;;5.18;;
35646;SDS011;28680;45.642;13.756;2023-06-10T12:10:05;5.85;;;4.50;;
35646;SDS011;28680;45.642;13.756;2023-06-10T12:12:31;6.40;;;4.78;;
35646;SDS011;28680;45.642;13.756;2023-06-10T12:15:01;4.93;;;3.85;;
35646;SDS011;28680;45.642;13.756;2023-06-10T12:19:56;5.05;;;3.70;;
35646;SDS011;28680;45.642;13.756;2023-06-10T12:22:22;4.00;;;3.58;;
35646;SDS011;28680;45.642;13.756;2023-06-10T12:24:59;5.43;;;3.58;;
35646;SDS011;28680;45.642;13.756;2023-06-10T12:27:28;8.02;;;4.50;;
35646;SDS011;28680;45.642;13.756;2023-06-10T12:29:55;5.57;;;4.53;;
35646;SDS011;28680;45.642;13.756;2023-06-10T12:32:46;7.78;;;4.75;;
35646;SDS011;28680;45.642;13.756;2023-06-10T12:35:13;8.88;;;3.40;;
35646;SDS011;28680;45.642;13.756;2023-06-10T12:37:43;26.63;;;2.97;;
35646;SDS011;28680;45.642;13.756;2023-06-10T12:40:29;3.58;;;1.85;;
35646;SDS011;28680;45.642;13.756;2023-06-10T12:43:00;3.28;;;1.65;;
35646;SDS011;28680;45.642;13.756;2023-06-10T12:45:31;1.92;;;1.55;;
35646;SDS011;28680;45.642;13.756;2023-06-10T12:50:40;3.20;;;1.80;;
35646;SDS011;28680;45.642;13.756;2023-06-10T12:53:07;3.05;;;1.60;;
35646;SDS011;28680;45.642;13.756;2023-06-10T12:55:36;2.92;;;1.40;;
35646;SDS011;28680;45.642;13.756;2023-06-10T12:58:03;2.70;;;1.73;;
35646;SDS011;28680;45.642;13.756;2023-06-10T13:00:29;3.88;;;2.10;;
35646;SDS011;28680;45.642;13.756;2023-06-10T13:02:56;3.45;;;2.17;;
35646;SDS011;28680;45.642;13.756;2023-06-10T13:05:26;3.22;;;2.38;;
35646;SDS011;28680;45.642;13.756;2023-06-10T13:07:52;5.68;;;2.20;;
35646;SDS011;28680;45.642;13.756;2023-06-10T13:10:20;3.97;;;2.58;;
35646;SDS011;28680;45.642;13.756;2023-06-10T13:12:47;4.32;;;2.60;;
35646;SDS011;28680;45.642;13.756;2023-06-10T13:15:13;5.80;;;2.70;;
35646;SDS011;28680;45.642;13.756;2023-06-10T13:17:45;5.10;;;2.67;;
35646;SDS011;28680;45.642;13.756;2023-06-10T13:20:14;3.95;;;2.60;;
35646;SDS011;28680;45.642;13.756;2023-06-10T13:22:43;4.20;;;2.42;;
35646;SDS011;28680;45.642;13.756;2023-06-10T13:25:10;3.40;;;2.70;;
35646;SDS011;28680;45.642;13.756;2023-06-10T13:27:36;5.25;;;2.90;;
35646;SDS011;28680;45.642;13.756;2023-06-10T13:30:06;3.75;;;2.65;;
35646;SDS011;28680;45.642;13.756;2023-06-10T13:32:34;6.20;;;2.63;;
35646;SDS011;28680;45.642;13.756;2023-06-10T13:35:01;3.70;;;2.65;;
35646;SDS011;28680;45.642;13.756;2023-06-10T13:37:28;5.10;;;3.00;;
35646;SDS011;28680;45.642;13.756;2023-06-10T13:39:54;3.92;;;3.20;;
35646;SDS011;28680;45.642;13.756;2023-06-10T13:42:20;3.78;;;3.00;;
35646;SDS011;28680;45.642;13.756;2023-06-10T13:44:47;5.47;;;2.90;;
35646;SDS011;28680;45.642;13.756;2023-06-10T13:47:14;6.28;;;3.20;;
35646;SDS011;28680;45.642;13.756;2023-06-10T13:49:40;4.43;;;2.78;;
35646;SDS011;28680;45.642;13.756;2023-06-10T13:52:06;5.93;;;3.03;;
35646;SDS011;28680;45.642;13.756;2023-06-10T13:54:33;5.05;;;3.20;;
35646;SDS011;28680;45.642;13.756;2023-06-10T13:57:01;3.22;;;2.60;;
35646;SDS011;28680;45.642;13.756;2023-06-10T13:59:27;4.82;;;3.25;;
35646;SDS011;28680;45.642;13.756;2023-06-10T14:01:53;3.00;;;2.70;;
35646;SDS011;28680;45.642;13.756;2023-06-10T14:04:19;3.63;;;2.78;;
35646;SDS011;28680;45.642;13.756;2023-06-10T14:06:45;3.80;;;2.83;;
35646;SDS011;28680;45.642;13.756;2023-06-10T14:09:12;4.88;;;3.70;;
35646;SDS011;28680;45.642;13.756;2023-06-10T14:11:38;4.28;;;3.28;;
35646;SDS011;28680;45.642;13.756;2023-06-10T14:14:04;4.28;;;3.08;;
35646;SDS011;28680;45.642;13.756;2023-06-10T14:16:30;4.90;;;2.90;;
35646;SDS011;28680;45.642;13.756;2023-06-10T14:18:56;2.55;;;2.33;;
35646;SDS011;28680;45.642;13.756;2023-06-10T14:21:22;3.15;;;2.30;;
35646;SDS011;28680;45.642;13.756;2023-06-10T14:23:47;4.75;;;2.85;;
35646;SDS011;28680;45.642;13.756;2023-06-10T14:26:15;4.88;;;2.33;;
35646;SDS011;28680;45.642;13.756;2023-06-10T14:28:40;4.50;;;2.75;;
35646;SDS011;28680;45.642;13.756;2023-06-10T14:31:06;2.50;;;2.00;;
35646;SDS011;28680;45.642;13.756;2023-06-10T14:33:32;2.25;;;1.92;;
35646;SDS011;28680;45.642;13.756;2023-06-10T14:35:58;2.20;;;2.00;;
35646;SDS011;28680;45.642;13.756;2023-06-10T14:38:24;3.47;;;2.40;;
35646;SDS011;28680;45.642;13.756;2023-06-10T14:40:51;2.45;;;2.25;;
35646;SDS011;28680;45.642;13.756;2023-06-10T14:43:17;3.42;;;2.72;;
35646;SDS011;28680;45.642;13.756;2023-06-10T14:45:43;6.95;;;2.53;;
35646;SDS011;28680;45.642;13.756;2023-06-10T14:48:10;4.38;;;2.83;;
35646;SDS011;28680;45.642;13.756;2023-06-10T14:50:36;7.57;;;2.30;;
35646;SDS011;28680;45.642;13.756;2023-06-10T14:53:03;5.53;;;2.72;;
35646;SDS011;28680;45.642;13.756;2023-06-10T14:55:29;4.38;;;2.90;;